sensor_id;sensor_type;location;lat;lon;timestamp;P1;durP1;ratioP1;P2;durP2;ratioP2
14048;SDS011;7099;53.922;10.728;2023-07-20T00:01:32;2.43;;;2.03;;
14048;SDS011;7099;53.922;10.728;2023-07-20T00:05:38;5.27;;;2.13;;
14048;SDS011;7099;53.922;10.728;2023-07-20T00:09:44;3.13;;;2.10;;
14048;SDS011;7099;53.922;10.728;2023-07-20T00:13:49;2.80;;;2.27;;
14048;SDS011;7099;53.922;10.728;2023-07-20T00:17:55;4.10;;;2.37;;
14048;SDS011;7099;53.922;10.728;2023-07-20T00:22:01;7.87;;;2.60;;
14048;SDS011;7099;53.922;10.728;2023-07-20T00:26:09;4.77;;;2.20;;
14048;SDS011;7099;53.922;10.728;2023-07-20T00:30:14;4.80;;;2.00;;
14048;SDS011;7099;53.922;10.728;2023-07-20T00:34:20;1.80;;;1.70;;
14048;SDS011;7099;53.922;10.728;2023-07-20T00:38:26;3.63;;;2.10;;
14048;SDS011;7099;53.922;10.728;2023-07-20T00:42:31;2.90;;;2.30;;
14048;SDS011;7099;53.922;10.728;2023-07-20T00:46:37;2.93;;;1.90;;
14048;SDS011;7099;53.922;10.728;2023-07-20T00:50:43;2.50;;;2.10;;
14048;SDS011;7099;53.922;10.728;2023-07-20T00:54:50;2.90;;;2.07;;
14048;SDS011;7099;53.922;10.728;2023-07-20T00:58:56;3.00;;;1.87;;
14048;SDS011;7099;53.922;10.728;2023-07-20T01:03:02;2.93;;;2.20;;
14048;SDS011;7099;53.922;10.728;2023-07-20T01:11:17;2.80;;;2.10;;
14048;SDS011;7099;53.922;10.728;2023-07-20T01:15:50;2.93;;;1.90;;
14048;SDS011;7099;53.922;10.728;2023-07-20T01:20:03;1.97;;;1.87;;
14048;SDS011;7099;53.922;10.728;2023-07-20T01:24:21;4.20;;;2.03;;
14048;SDS011;7099;53.922;10.728;2023-07-20T01:33:18;2.37;;;1.90;;
14048;SDS011;7099;53.922;10.728;2023-07-20T01:37:25;5.40;;;2.07;;
14048;SDS011;7099;53.922;10.728;2023-07-20T01:41:34;2.40;;;2.20;;
14048;SDS011;7099;53.922;10.728;2023-07-20T01:45:40;3.80;;;1.80;;
14048;SDS011;7099;53.922;10.728;2023-07-20T01:49:45;3.63;;;2.20;;
14048;SDS011;7099;53.922;10.728;2023-07-20T01:53:51;2.80;;;1.90;;
14048;SDS011;7099;53.922;10.728;2023-07-20T01:57:57;2.50;;;2.10;;
14048;SDS011;7099;53.922;10.728;2023-07-20T02:02:04;4.20;;;2.50;;
14048;SDS011;7099;53.922;10.728;2023-07-20T02:06:10;3.90;;;2.23;;
14048;SDS011;7099;53.922;10.728;2023-07-20T02:10:16;3.80;;;2.50;;
14048;SDS011;7099;53.922;10.728;2023-07-20T02:14:21;5.47;;;2.43;;
14048;SDS011;7099;53.922;10.728;2023-07-20T02:18:27;4.57;;;2.20;;
14048;SDS011;7099;53.922;10.728;2023-07-20T02:22:33;2.53;;;2.33;;
14048;SDS011;7099;53.922;10.728;2023-07-20T02:26:38;4.23;;;2.30;;
14048;SDS011;7099;53.922;10.728;2023-07-20T02:30:44;7.77;;;2.63;;
14048;SDS011;7099;53.922;10.728;2023-07-20T02:34:49;4.87;;;2.70;;
14048;SDS011;7099;53.922;10.728;2023-07-20T02:38:55;2.87;;;2.20;;
14048;SDS011;7099;53.922;10.728;2023-07-20T02:43:00;5.47;;;2.60;;
14048;SDS011;7099;53.922;10.728;2023-07-20T02:47:06;4.70;;;2.20;;
14048;SDS011;7099;53.922;10.728;2023-07-20T02:51:11;7.63;;;2.47;;
14048;SDS011;7099;53.922;10.728;2023-07-20T02:55:17;7.63;;;2.50;;
14048;SDS011;7099;53.922;10.728;2023-07-20T02:59:24;4.20;;;2.40;;
14048;SDS011;7099;53.922;10.728;2023-07-20T03:03:29;4.50;;;2.30;;
14048;SDS011;7099;53.922;10.728;2023-07-20T03:07:35;2.57;;;2.20;;
14048;SDS011;7099;53.922;10.728;2023-07-20T03:11:40;6.60;;;2.77;;
14048;SDS011;7099;53.922;10.728;2023-07-20T03:15:46;3.13;;;2.20;;
14048;SDS011;7099;53.922;10.728;2023-07-20T03:19:52;6.83;;;2.77;;
14048;SDS011;7099;53.922;10.728;2023-07-20T03:23:57;9.43;;;2.50;;
14048;SDS011;7099;53.922;10.728;2023-07-20T03:28:03;13.87;;;3.13;;
14048;SDS011;7099;53.922;10.728;2023-07-20T03:32:08;11.00;;;2.83;;
14048;SDS011;7099;53.922;10.728;2023-07-20T03:36:15;5.27;;;2.70;;
14048;SDS011;7099;53.922;10.728;2023-07-20T03:40:20;4.67;;;2.50;;
14048;SDS011;7099;53.922;10.728;2023-07-20T03:44:26;4.50;;;2.80;;
14048;SDS011;7099;53.922;10.728;2023-07-20T03:48:32;3.90;;;1.97;;
14048;SDS011;7099;53.922;10.728;2023-07-20T03:52:38;7.53;;;2.43;;
14048;SDS011;7099;53.922;10.728;2023-07-20T03:56:44;5.43;;;2.40;;
14048;SDS011;7099;53.922;10.728;2023-07-20T04:00:50;6.07;;;2.53;;
14048;SDS011;7099;53.922;10.728;2023-07-20T04:04:56;5.00;;;2.57;;
14048;SDS011;7099;53.922;10.728;2023-07-20T04:09:02;6.37;;;2.40;;
14048;SDS011;7099;53.922;10.728;2023-07-20T04:13:09;3.60;;;2.23;;
14048;SDS011;7099;53.922;10.728;2023-07-20T04:17:15;4.13;;;1.90;;
14048;SDS011;7099;53.922;10.728;2023-07-20T04:21:22;6.20;;;2.10;;
14048;SDS011;7099;53.922;10.728;2023-07-20T04:25:30;6.63;;;2.13;;
14048;SDS011;7099;53.922;10.728;2023-07-20T04:29:43;4.60;;;2.50;;
14048;SDS011;7099;53.922;10.728;2023-07-20T04:33:49;8.63;;;1.97;;
14048;SDS011;7099;53.922;10.728;2023-07-20T04:37:55;9.27;;;2.47;;
14048;SDS011;7099;53.922;10.728;2023-07-20T04:42:00;4.90;;;1.90;;
14048;SDS011;7099;53.922;10.728;2023-07-20T04:46:06;8.43;;;2.23;;
14048;SDS011;7099;53.922;10.728;2023-07-20T04:50:11;4.70;;;1.80;;
14048;SDS011;7099;53.922;10.728;2023-07-20T04:54:17;2.40;;;1.70;;
14048;SDS011;7099;53.922;10.728;2023-07-20T04:58:23;1.83;;;1.73;;
14048;SDS011;7099;53.922;10.728;2023-07-20T05:02:29;7.03;;;2.03;;
14048;SDS011;7099;53.922;10.728;2023-07-20T05:06:35;7.13;;;2.30;;
14048;SDS011;7099;53.922;10.728;2023-07-20T05:10:40;4.23;;;1.60;;
14048;SDS011;7099;53.922;10.728;2023-07-20T05:14:46;2.77;;;1.90;;
14048;SDS011;7099;53.922;10.728;2023-07-20T05:18:51;5.87;;;1.90;;
14048;SDS011;7099;53.922;10.728;2023-07-20T05:22:57;1.87;;;1.70;;
14048;SDS011;7099;53.922;10.728;2023-07-20T05:27:02;2.83;;;1.90;;
14048;SDS011;7099;53.922;10.728;2023-07-20T05:31:08;1.90;;;1.80;;
14048;SDS011;7099;53.922;10.728;2023-07-20T05:35:14;2.43;;;1.60;;
14048;SDS011;7099;53.922;10.728;2023-07-20T05:39:21;3.33;;;2.10;;
14048;SDS011;7099;53.922;10.728;2023-07-20T05:43:27;4.43;;;1.60;;
14048;SDS011;7099;53.922;10.728;2023-07-20T05:47:32;3.00;;;1.93;;
14048;SDS011;7099;53.922;10.728;2023-07-20T05:51:38;5.40;;;1.40;;
14048;SDS011;7099;53.922;10.728;2023-07-20T05:55:44;5.13;;;2.07;;
14048;SDS011;7099;53.922;10.728;2023-07-20T05:59:49;4.80;;;1.90;;
14048;SDS011;7099;53.922;10.728;2023-07-20T06:03:55;3.20;;;1.93;;
14048;SDS011;7099;53.922;10.728;2023-07-20T06:08:01;2.70;;;1.60;;
14048;SDS011;7099;53.922;10.728;2023-07-20T06:12:08;4.53;;;2.00;;
14048;SDS011;7099;53.922;10.728;2023-07-20T06:16:13;5.93;;;1.60;;
14048;SDS011;7099;53.922;10.728;2023-07-20T06:20:19;2.10;;;1.30;;
14048;SDS011;7099;53.922;10.728;2023-07-20T06:24:25;4.93;;;1.43;;
14048;SDS011;7099;53.922;10.728;2023-07-20T06:28:30;4.00;;;1.20;;
14048;SDS011;7099;53.922;10.728;2023-07-20T06:32:36;2.70;;;1.10;;
14048;SDS011;7099;53.922;10.728;2023-07-20T07:38:22;3.30;;;1.70;;
14048;SDS011;7099;53.922;10.728;2023-07-20T07:42:47;4.40;;;1.97;;
14048;SDS011;7099;53.922;10.728;2023-07-20T07:46:53;3.60;;;2.00;;
14048;SDS011;7099;53.922;10.728;2023-07-20T07:50:59;4.50;;;2.20;;
14048;SDS011;7099;53.922;10.728;2023-07-20T07:55:05;3.47;;;1.90;;
14048;SDS011;7099;53.922;10.728;2023-07-20T07:59:11;6.60;;;2.17;;
14048;SDS011;7099;53.922;10.728;2023-07-20T08:03:16;4.07;;;1.50;;
14048;SDS011;7099;53.922;10.728;2023-07-20T08:07:23;4.80;;;2.00;;
14048;SDS011;7099;53.922;10.728;2023-07-20T08:11:29;4.37;;;1.97;;
14048;SDS011;7099;53.922;10.728;2023-07-20T08:15:38;2.80;;;1.97;;
14048;SDS011;7099;53.922;10.728;2023-07-20T08:19:44;3.90;;;2.10;;
14048;SDS011;7099;53.922;10.728;2023-07-20T08:23:51;6.07;;;1.70;;
14048;SDS011;7099;53.922;10.728;2023-07-20T08:27:56;3.27;;;1.80;;
14048;SDS011;7099;53.922;10.728;2023-07-20T08:32:02;3.90;;;1.63;;
14048;SDS011;7099;53.922;10.728;2023-07-20T08:36:09;2.30;;;1.47;;
14048;SDS011;7099;53.922;10.728;2023-07-20T08:40:16;11.10;;;2.37;;
14048;SDS011;7099;53.922;10.728;2023-07-20T08:44:22;4.80;;;1.80;;
14048;SDS011;7099;53.922;10.728;2023-07-20T08:48:30;6.70;;;2.00;;
14048;SDS011;7099;53.922;10.728;2023-07-20T08:52:36;5.83;;;2.37;;
14048;SDS011;7099;53.922;10.728;2023-07-20T08:56:41;3.63;;;1.90;;
14048;SDS011;7099;53.922;10.728;2023-07-20T09:00:50;7.03;;;1.70;;
14048;SDS011;7099;53.922;10.728;2023-07-20T09:04:56;4.17;;;1.60;;
14048;SDS011;7099;53.922;10.728;2023-07-20T09:09:02;3.07;;;1.70;;
14048;SDS011;7099;53.922;10.728;2023-07-20T09:13:08;2.93;;;1.70;;
14048;SDS011;7099;53.922;10.728;2023-07-20T09:17:14;3.97;;;1.70;;
14048;SDS011;7099;53.922;10.728;2023-07-20T09:21:22;7.23;;;1.70;;
14048;SDS011;7099;53.922;10.728;2023-07-20T09:25:27;2.70;;;1.73;;
14048;SDS011;7099;53.922;10.728;2023-07-20T09:29:39;6.17;;;1.67;;
14048;SDS011;7099;53.922;10.728;2023-07-20T09:33:58;5.20;;;1.93;;
14048;SDS011;7099;53.922;10.728;2023-07-20T09:38:05;6.00;;;1.70;;
14048;SDS011;7099;53.922;10.728;2023-07-20T09:42:14;12.13;;;2.30;;
14048;SDS011;7099;53.922;10.728;2023-07-20T09:46:23;3.57;;;1.70;;
14048;SDS011;7099;53.922;10.728;2023-07-20T09:50:41;3.33;;;1.30;;
14048;SDS011;7099;53.922;10.728;2023-07-20T09:54:55;6.23;;;1.53;;
14048;SDS011;7099;53.922;10.728;2023-07-20T09:59:01;7.90;;;1.57;;
14048;SDS011;7099;53.922;10.728;2023-07-20T10:03:06;7.23;;;1.73;;
14048;SDS011;7099;53.922;10.728;2023-07-20T10:07:12;3.00;;;1.60;;
14048;SDS011;7099;53.922;10.728;2023-07-20T10:11:20;2.60;;;1.40;;
14048;SDS011;7099;53.922;10.728;2023-07-20T10:15:28;5.43;;;1.50;;
14048;SDS011;7099;53.922;10.728;2023-07-20T10:19:46;6.17;;;1.77;;
14048;SDS011;7099;53.922;10.728;2023-07-20T10:23:56;8.27;;;2.00;;
14048;SDS011;7099;53.922;10.728;2023-07-20T10:28:04;7.43;;;1.43;;
14048;SDS011;7099;53.922;10.728;2023-07-20T10:32:13;3.17;;;1.80;;
14048;SDS011;7099;53.922;10.728;2023-07-20T10:36:24;3.03;;;1.40;;
14048;SDS011;7099;53.922;10.728;2023-07-20T10:40:38;4.67;;;1.40;;
14048;SDS011;7099;53.922;10.728;2023-07-20T10:44:44;4.63;;;1.23;;
14048;SDS011;7099;53.922;10.728;2023-07-20T10:48:59;7.47;;;2.53;;
14048;SDS011;7099;53.922;10.728;2023-07-20T10:53:17;3.10;;;1.13;;
14048;SDS011;7099;53.922;10.728;2023-07-20T11:01:36;3.43;;;1.33;;
14048;SDS011;7099;53.922;10.728;2023-07-20T11:05:42;4.97;;;1.23;;
14048;SDS011;7099;53.922;10.728;2023-07-20T11:09:47;2.27;;;1.10;;
14048;SDS011;7099;53.922;10.728;2023-07-20T11:13:55;2.40;;;1.10;;
14048;SDS011;7099;53.922;10.728;2023-07-20T11:18:12;1.67;;;1.03;;
14048;SDS011;7099;53.922;10.728;2023-07-20T11:22:18;1.77;;;1.17;;
14048;SDS011;7099;53.922;10.728;2023-07-20T11:26:25;1.00;;;0.80;;
14048;SDS011;7099;53.922;10.728;2023-07-20T11:30:32;2.60;;;0.80;;
14048;SDS011;7099;53.922;10.728;2023-07-20T11:34:39;2.93;;;1.10;;
14048;SDS011;7099;53.922;10.728;2023-07-20T11:38:45;2.27;;;0.90;;
14048;SDS011;7099;53.922;10.728;2023-07-20T11:42:51;4.40;;;1.83;;
14048;SDS011;7099;53.922;10.728;2023-07-20T11:47:11;5.30;;;1.13;;
14048;SDS011;7099;53.922;10.728;2023-07-20T11:51:17;8.60;;;1.00;;
14048;SDS011;7099;53.922;10.728;2023-07-20T11:55:23;3.83;;;1.10;;
14048;SDS011;7099;53.922;10.728;2023-07-20T11:59:28;1.63;;;0.80;;
14048;SDS011;7099;53.922;10.728;2023-07-20T12:03:36;7.30;;;1.33;;
14048;SDS011;7099;53.922;10.728;2023-07-20T12:07:41;2.93;;;1.30;;
14048;SDS011;7099;53.922;10.728;2023-07-20T12:11:48;1.27;;;0.90;;
14048;SDS011;7099;53.922;10.728;2023-07-20T12:15:55;3.07;;;1.10;;
14048;SDS011;7099;53.922;10.728;2023-07-20T12:20:01;1.97;;;1.00;;
14048;SDS011;7099;53.922;10.728;2023-07-20T12:24:07;2.50;;;0.90;;
14048;SDS011;7099;53.922;10.728;2023-07-20T12:28:16;4.87;;;1.30;;
14048;SDS011;7099;53.922;10.728;2023-07-20T12:32:23;2.20;;;0.80;;
14048;SDS011;7099;53.922;10.728;2023-07-20T12:36:29;4.03;;;1.30;;
14048;SDS011;7099;53.922;10.728;2023-07-20T12:40:35;1.90;;;0.90;;
14048;SDS011;7099;53.922;10.728;2023-07-20T12:44:41;2.10;;;1.07;;
14048;SDS011;7099;53.922;10.728;2023-07-20T12:48:46;2.33;;;1.17;;
14048;SDS011;7099;53.922;10.728;2023-07-20T12:52:54;4.17;;;1.23;;
14048;SDS011;7099;53.922;10.728;2023-07-20T12:56:59;3.30;;;1.17;;
14048;SDS011;7099;53.922;10.728;2023-07-20T13:01:07;7.63;;;1.53;;
14048;SDS011;7099;53.922;10.728;2023-07-20T13:05:13;4.47;;;1.50;;
14048;SDS011;7099;53.922;10.728;2023-07-20T13:09:19;3.00;;;1.10;;
14048;SDS011;7099;53.922;10.728;2023-07-20T13:13:25;6.30;;;1.50;;
14048;SDS011;7099;53.922;10.728;2023-07-20T13:17:31;4.43;;;1.20;;
14048;SDS011;7099;53.922;10.728;2023-07-20T13:21:38;11.53;;;2.00;;
14048;SDS011;7099;53.922;10.728;2023-07-20T13:25:43;5.00;;;1.20;;
14048;SDS011;7099;53.922;10.728;2023-07-20T13:29:49;2.67;;;1.20;;
14048;SDS011;7099;53.922;10.728;2023-07-20T13:33:54;6.20;;;1.37;;
14048;SDS011;7099;53.922;10.728;2023-07-20T13:38:04;4.87;;;1.30;;
14048;SDS011;7099;53.922;10.728;2023-07-20T13:42:10;2.80;;;1.10;;
14048;SDS011;7099;53.922;10.728;2023-07-20T13:46:17;3.13;;;1.20;;
14048;SDS011;7099;53.922;10.728;2023-07-20T13:50:43;5.63;;;1.10;;
14048;SDS011;7099;53.922;10.728;2023-07-20T13:55:03;6.40;;;1.50;;
14048;SDS011;7099;53.922;10.728;2023-07-20T13:59:10;2.70;;;1.20;;
14048;SDS011;7099;53.922;10.728;2023-07-20T14:03:15;2.93;;;1.03;;
14048;SDS011;7099;53.922;10.728;2023-07-20T14:07:24;4.03;;;1.43;;
14048;SDS011;7099;53.922;10.728;2023-07-20T14:11:29;4.13;;;1.13;;
14048;SDS011;7099;53.922;10.728;2023-07-20T14:15:38;2.27;;;1.00;;
14048;SDS011;7099;53.922;10.728;2023-07-20T14:19:44;4.10;;;1.43;;
14048;SDS011;7099;53.922;10.728;2023-07-20T14:23:50;3.43;;;1.13;;
14048;SDS011;7099;53.922;10.728;2023-07-20T14:28:00;2.00;;;0.97;;
14048;SDS011;7099;53.922;10.728;2023-07-20T14:32:06;2.53;;;1.20;;
14048;SDS011;7099;53.922;10.728;2023-07-20T14:36:12;2.80;;;1.10;;
14048;SDS011;7099;53.922;10.728;2023-07-20T14:40:18;2.50;;;0.90;;
14048;SDS011;7099;53.922;10.728;2023-07-20T14:44:24;3.27;;;1.00;;
14048;SDS011;7099;53.922;10.728;2023-07-20T14:48:29;3.23;;;1.13;;
14048;SDS011;7099;53.922;10.728;2023-07-20T14:52:35;5.60;;;1.70;;
14048;SDS011;7099;53.922;10.728;2023-07-20T14:56:48;2.63;;;1.10;;
14048;SDS011;7099;53.922;10.728;2023-07-20T15:00:58;6.13;;;1.37;;
14048;SDS011;7099;53.922;10.728;2023-07-20T15:05:06;2.60;;;1.00;;
14048;SDS011;7099;53.922;10.728;2023-07-20T15:09:12;5.53;;;1.10;;
14048;SDS011;7099;53.922;10.728;2023-07-20T15:13:18;6.17;;;1.43;;
14048;SDS011;7099;53.922;10.728;2023-07-20T15:17:23;7.23;;;1.63;;
14048;SDS011;7099;53.922;10.728;2023-07-20T15:21:29;3.57;;;1.10;;
14048;SDS011;7099;53.922;10.728;2023-07-20T15:25:36;5.67;;;1.23;;
14048;SDS011;7099;53.922;10.728;2023-07-20T15:29:41;3.43;;;1.30;;
14048;SDS011;7099;53.922;10.728;2023-07-20T15:33:47;2.73;;;1.20;;
14048;SDS011;7099;53.922;10.728;2023-07-20T15:37:52;3.27;;;1.10;;
14048;SDS011;7099;53.922;10.728;2023-07-20T15:41:58;8.37;;;2.13;;
14048;SDS011;7099;53.922;10.728;2023-07-20T15:50:24;3.87;;;1.40;;
14048;SDS011;7099;53.922;10.728;2023-07-20T15:54:30;2.27;;;1.13;;
14048;SDS011;7099;53.922;10.728;2023-07-20T15:58:35;3.43;;;1.87;;
14048;SDS011;7099;53.922;10.728;2023-07-20T16:02:40;3.87;;;1.50;;
14048;SDS011;7099;53.922;10.728;2023-07-20T16:06:46;1.87;;;1.00;;
14048;SDS011;7099;53.922;10.728;2023-07-20T16:10:52;3.83;;;1.20;;
14048;SDS011;7099;53.922;10.728;2023-07-20T16:15:01;3.10;;;1.07;;
14048;SDS011;7099;53.922;10.728;2023-07-20T16:19:11;2.97;;;1.40;;
14048;SDS011;7099;53.922;10.728;2023-07-20T16:23:16;3.43;;;1.57;;
14048;SDS011;7099;53.922;10.728;2023-07-20T16:27:22;2.67;;;1.50;;
14048;SDS011;7099;53.922;10.728;2023-07-20T16:31:27;2.87;;;1.10;;
14048;SDS011;7099;53.922;10.728;2023-07-20T16:35:39;1.33;;;1.00;;
14048;SDS011;7099;53.922;10.728;2023-07-20T16:39:51;3.63;;;1.13;;
14048;SDS011;7099;53.922;10.728;2023-07-20T16:43:57;3.07;;;1.30;;
14048;SDS011;7099;53.922;10.728;2023-07-20T16:48:05;3.90;;;1.43;;
14048;SDS011;7099;53.922;10.728;2023-07-20T16:52:11;2.00;;;1.10;;
14048;SDS011;7099;53.922;10.728;2023-07-20T16:56:17;5.53;;;1.47;;
14048;SDS011;7099;53.922;10.728;2023-07-20T17:00:23;4.70;;;1.30;;
14048;SDS011;7099;53.922;10.728;2023-07-20T17:04:28;3.50;;;1.40;;
14048;SDS011;7099;53.922;10.728;2023-07-20T17:08:34;3.80;;;1.30;;
14048;SDS011;7099;53.922;10.728;2023-07-20T17:12:40;2.10;;;1.10;;
14048;SDS011;7099;53.922;10.728;2023-07-20T17:16:46;5.90;;;1.70;;
14048;SDS011;7099;53.922;10.728;2023-07-20T17:20:52;3.40;;;1.40;;
14048;SDS011;7099;53.922;10.728;2023-07-20T17:24:57;5.33;;;1.40;;
14048;SDS011;7099;53.922;10.728;2023-07-20T17:29:05;5.30;;;1.40;;
14048;SDS011;7099;53.922;10.728;2023-07-20T17:33:11;4.97;;;1.20;;
14048;SDS011;7099;53.922;10.728;2023-07-20T17:37:17;3.00;;;1.13;;
14048;SDS011;7099;53.922;10.728;2023-07-20T17:41:25;2.80;;;1.20;;
14048;SDS011;7099;53.922;10.728;2023-07-20T17:45:31;4.57;;;1.80;;
14048;SDS011;7099;53.922;10.728;2023-07-20T17:49:36;4.63;;;1.50;;
14048;SDS011;7099;53.922;10.728;2023-07-20T17:53:42;7.87;;;1.50;;
14048;SDS011;7099;53.922;10.728;2023-07-20T17:57:48;4.23;;;1.40;;
14048;SDS011;7099;53.922;10.728;2023-07-20T18:01:53;3.70;;;1.20;;
14048;SDS011;7099;53.922;10.728;2023-07-20T18:06:05;2.17;;;1.20;;
14048;SDS011;7099;53.922;10.728;2023-07-20T18:10:14;8.40;;;1.40;;
14048;SDS011;7099;53.922;10.728;2023-07-20T18:14:20;3.83;;;1.40;;
14048;SDS011;7099;53.922;10.728;2023-07-20T18:18:26;8.10;;;1.20;;
14048;SDS011;7099;53.922;10.728;2023-07-20T18:22:33;4.93;;;1.20;;
14048;SDS011;7099;53.922;10.728;2023-07-20T18:26:38;2.27;;;1.20;;
14048;SDS011;7099;53.922;10.728;2023-07-20T18:30:44;6.20;;;1.30;;
14048;SDS011;7099;53.922;10.728;2023-07-20T18:34:50;3.67;;;1.27;;
14048;SDS011;7099;53.922;10.728;2023-07-20T18:38:56;3.83;;;1.30;;
14048;SDS011;7099;53.922;10.728;2023-07-20T18:43:02;2.40;;;1.30;;
14048;SDS011;7099;53.922;10.728;2023-07-20T18:47:07;5.33;;;1.40;;
14048;SDS011;7099;53.922;10.728;2023-07-20T18:51:16;2.13;;;1.13;;
14048;SDS011;7099;53.922;10.728;2023-07-20T18:55:21;5.53;;;1.40;;
14048;SDS011;7099;53.922;10.728;2023-07-20T18:59:27;3.50;;;0.90;;
14048;SDS011;7099;53.922;10.728;2023-07-20T19:03:32;2.20;;;1.10;;
14048;SDS011;7099;53.922;10.728;2023-07-20T19:07:39;3.20;;;1.00;;
14048;SDS011;7099;53.922;10.728;2023-07-20T19:11:45;5.80;;;1.13;;
14048;SDS011;7099;53.922;10.728;2023-07-20T19:15:53;1.43;;;0.87;;
14048;SDS011;7099;53.922;10.728;2023-07-20T19:20:04;4.83;;;1.30;;
14048;SDS011;7099;53.922;10.728;2023-07-20T19:24:10;5.03;;;1.20;;
14048;SDS011;7099;53.922;10.728;2023-07-20T19:28:15;5.80;;;1.27;;
14048;SDS011;7099;53.922;10.728;2023-07-20T19:32:21;3.30;;;1.10;;
14048;SDS011;7099;53.922;10.728;2023-07-20T19:36:26;4.43;;;1.20;;
14048;SDS011;7099;53.922;10.728;2023-07-20T19:40:32;3.53;;;1.30;;
14048;SDS011;7099;53.922;10.728;2023-07-20T19:44:38;6.87;;;1.53;;
14048;SDS011;7099;53.922;10.728;2023-07-20T19:48:44;4.60;;;1.43;;
14048;SDS011;7099;53.922;10.728;2023-07-20T19:52:50;2.33;;;1.27;;
14048;SDS011;7099;53.922;10.728;2023-07-20T19:56:59;10.70;;;1.60;;
14048;SDS011;7099;53.922;10.728;2023-07-20T20:01:05;9.83;;;1.30;;
14048;SDS011;7099;53.922;10.728;2023-07-20T20:05:13;4.30;;;1.33;;
14048;SDS011;7099;53.922;10.728;2023-07-20T20:09:20;9.90;;;1.97;;
14048;SDS011;7099;53.922;10.728;2023-07-20T20:13:25;6.87;;;1.10;;
14048;SDS011;7099;53.922;10.728;2023-07-20T20:17:33;2.73;;;1.30;;
14048;SDS011;7099;53.922;10.728;2023-07-20T20:21:39;3.87;;;1.50;;
14048;SDS011;7099;53.922;10.728;2023-07-20T20:25:45;6.93;;;1.50;;
14048;SDS011;7099;53.922;10.728;2023-07-20T20:29:52;4.60;;;1.40;;
14048;SDS011;7099;53.922;10.728;2023-07-20T20:33:58;6.00;;;1.60;;
14048;SDS011;7099;53.922;10.728;2023-07-20T20:38:03;3.57;;;1.90;;
14048;SDS011;7099;53.922;10.728;2023-07-20T20:42:09;3.60;;;1.37;;
14048;SDS011;7099;53.922;10.728;2023-07-20T20:46:14;2.70;;;1.77;;
14048;SDS011;7099;53.922;10.728;2023-07-20T20:50:25;4.00;;;1.80;;
14048;SDS011;7099;53.922;10.728;2023-07-20T21:02:41;3.40;;;1.30;;
14048;SDS011;7099;53.922;10.728;2023-07-20T21:06:51;2.80;;;1.30;;
14048;SDS011;7099;53.922;10.728;2023-07-20T21:10:57;3.13;;;1.37;;
14048;SDS011;7099;53.922;10.728;2023-07-20T21:15:03;3.63;;;1.40;;
14048;SDS011;7099;53.922;10.728;2023-07-20T21:19:12;4.50;;;1.70;;
14048;SDS011;7099;53.922;10.728;2023-07-20T21:23:17;1.53;;;1.13;;
14048;SDS011;7099;53.922;10.728;2023-07-20T21:27:26;2.57;;;1.40;;
14048;SDS011;7099;53.922;10.728;2023-07-20T21:35:37;3.90;;;1.20;;
14048;SDS011;7099;53.922;10.728;2023-07-20T21:39:43;3.93;;;1.23;;
14048;SDS011;7099;53.922;10.728;2023-07-20T21:43:48;1.40;;;1.00;;
14048;SDS011;7099;53.922;10.728;2023-07-20T21:47:54;2.50;;;1.40;;
14048;SDS011;7099;53.922;10.728;2023-07-20T21:56:05;2.00;;;1.30;;
14048;SDS011;7099;53.922;10.728;2023-07-20T22:00:11;12.87;;;2.10;;
14048;SDS011;7099;53.922;10.728;2023-07-20T22:04:18;7.70;;;1.43;;
14048;SDS011;7099;53.922;10.728;2023-07-20T22:08:24;2.00;;;1.40;;
14048;SDS011;7099;53.922;10.728;2023-07-20T22:12:30;3.80;;;1.53;;
14048;SDS011;7099;53.922;10.728;2023-07-20T22:16:35;3.60;;;1.80;;
14048;SDS011;7099;53.922;10.728;2023-07-20T22:20:41;8.33;;;1.67;;
14048;SDS011;7099;53.922;10.728;2023-07-20T22:24:46;3.90;;;1.40;;
14048;SDS011;7099;53.922;10.728;2023-07-20T22:28:52;2.93;;;1.30;;
14048;SDS011;7099;53.922;10.728;2023-07-20T22:32:57;8.13;;;1.57;;
14048;SDS011;7099;53.922;10.728;2023-07-20T22:37:03;7.83;;;1.53;;
14048;SDS011;7099;53.922;10.728;2023-07-20T22:41:09;8.73;;;1.50;;
14048;SDS011;7099;53.922;10.728;2023-07-20T22:45:15;7.63;;;1.43;;
14048;SDS011;7099;53.922;10.728;2023-07-20T22:49:21;3.63;;;1.40;;
14048;SDS011;7099;53.922;10.728;2023-07-20T22:53:26;3.20;;;1.30;;
14048;SDS011;7099;53.922;10.728;2023-07-20T22:57:34;8.20;;;1.40;;
